createdAt,value
2019-04-29T00:01:02.987Z,4.22
2019-04-29T00:03:30.860Z,4.30
2019-04-29T00:05:58.706Z,4.87
2019-04-29T00:08:27.080Z,12.32
2019-04-29T00:10:54.976Z,12.20
2019-04-29T00:13:23.067Z,7.22
2019-04-29T00:16:28.286Z,3.90
2019-04-29T00:19:13.984Z,4.62
2019-04-29T00:21:43.273Z,3.75
2019-04-29T00:24:11.437Z,3.12
2019-04-29T00:26:39.533Z,2.87
2019-04-29T00:29:07.989Z,3.08
2019-04-29T00:31:36.094Z,2.37
2019-04-29T00:34:04.817Z,2.90
2019-04-29T00:36:37.300Z,3.33
2019-04-29T00:39:23.945Z,3.72
2019-04-29T00:42:16.799Z,8.27
2019-04-29T00:44:44.563Z,4.05
2019-04-29T00:47:12.733Z,3.35
2019-04-29T00:49:40.838Z,3.00
2019-04-29T00:52:08.995Z,2.50
2019-04-29T00:54:46.982Z,2.58
2019-04-29T00:57:15.289Z,2.05
2019-04-29T00:59:43.531Z,5.20
2019-04-29T01:02:11.956Z,3.85
2019-04-29T01:04:39.888Z,2.83
2019-04-29T01:07:08.152Z,4.00
2019-04-29T01:09:35.998Z,4.55
2019-04-29T01:12:04.084Z,4.15
2019-04-29T01:14:32.297Z,3.60
2019-04-29T01:17:00.657Z,4.10
2019-04-29T01:19:28.930Z,5.85
2019-04-29T01:21:56.409Z,5.28
2019-04-29T01:24:25.330Z,3.83
2019-04-29T01:27:03.566Z,3.30
2019-04-29T01:29:32.547Z,2.97
2019-04-29T01:32:01.384Z,6.35
2019-04-29T01:34:34.989Z,8.32
2019-04-29T01:37:04.410Z,10.90
2019-04-29T01:39:40.088Z,9.05
2019-04-29T01:42:21.478Z,7.75
2019-04-29T01:44:51.973Z,5.43
2019-04-29T01:47:21.232Z,6.37
2019-04-29T01:49:49.085Z,4.60
2019-04-29T01:52:17.188Z,6.12
2019-04-29T01:54:45.826Z,8.65
2019-04-29T01:57:14.116Z,11.57
2019-04-29T01:59:42.322Z,8.13
2019-04-29T02:02:10.590Z,7.40
2019-04-29T02:04:39.170Z,9.38
2019-04-29T02:07:07.290Z,12.50
2019-04-29T02:09:38.586Z,18.08
2019-04-29T02:12:06.902Z,13.35
2019-04-29T02:14:34.825Z,13.80
2019-04-29T02:17:02.991Z,14.32
2019-04-29T02:19:32.614Z,9.85
2019-04-29T02:22:28.627Z,8.95
2019-04-29T02:25:01.108Z,6.85
2019-04-29T02:27:29.289Z,6.50
2019-04-29T02:29:58.026Z,11.02
2019-04-29T02:32:26.183Z,14.87
2019-04-29T02:34:54.352Z,20.37
2019-04-29T02:37:26.579Z,10.07
2019-04-29T02:40:08.293Z,11.63
2019-04-29T02:42:47.413Z,7.53
2019-04-29T02:45:21.361Z,14.98
2019-04-29T02:47:49.117Z,14.50
2019-04-29T02:50:17.120Z,10.30
2019-04-29T02:52:45.398Z,5.97
2019-04-29T02:55:14.522Z,3.70
2019-04-29T02:57:49.982Z,4.43
2019-04-29T03:00:30.635Z,4.22
2019-04-29T03:03:06.791Z,4.05
2019-04-29T03:05:40.580Z,4.12
2019-04-29T03:08:08.474Z,4.03
2019-04-29T03:10:36.941Z,5.90
2019-04-29T03:13:05.002Z,7.28
2019-04-29T03:15:32.933Z,7.45
2019-04-29T03:18:01.130Z,7.05
2019-04-29T03:20:32.217Z,5.68
2019-04-29T03:23:19.934Z,5.57
2019-04-29T03:25:48.102Z,5.78
2019-04-29T03:28:16.303Z,5.65
2019-04-29T03:30:44.952Z,4.60
2019-04-29T03:33:12.783Z,6.40
2019-04-29T03:35:40.937Z,8.80
2019-04-29T03:38:09.159Z,8.63
2019-04-29T03:40:36.946Z,9.48
2019-04-29T03:43:05.147Z,6.30
2019-04-29T03:45:33.605Z,5.05
2019-04-29T03:48:01.683Z,4.82
2019-04-29T03:50:29.725Z,6.35
2019-04-29T03:52:57.857Z,6.57
2019-04-29T03:55:38.811Z,5.55
2019-04-29T03:57:54.375Z,7.95
2019-04-29T04:00:22.621Z,7.37
2019-04-29T04:03:27.879Z,8.25
2019-04-29T04:06:08.994Z,6.10
2019-04-29T04:08:42.662Z,7.85
2019-04-29T04:11:10.716Z,7.72
2019-04-29T04:13:38.811Z,6.70
2019-04-29T04:16:07.091Z,8.63
2019-04-29T04:18:35.444Z,10.05
2019-04-29T04:21:04.055Z,15.27
2019-04-29T04:23:32.146Z,13.70
2019-04-29T04:26:00.220Z,11.02
2019-04-29T04:28:28.781Z,8.80
2019-04-29T04:30:56.860Z,14.48
2019-04-29T04:33:25.496Z,18.80
2019-04-29T04:35:53.453Z,18.62
2019-04-29T04:38:21.817Z,18.77
2019-04-29T04:41:10.530Z,21.35
2019-04-29T04:43:39.641Z,33.00
2019-04-29T04:46:07.598Z,39.47
2019-04-29T04:48:36.377Z,46.97
2019-04-29T04:51:04.254Z,29.12
2019-04-29T04:53:32.416Z,14.38
2019-04-29T04:56:01.027Z,10.45
2019-04-29T04:58:29.668Z,10.38
2019-04-29T05:00:57.749Z,10.38
2019-04-29T05:03:26.630Z,10.35
2019-04-29T05:05:54.498Z,9.18
2019-04-29T05:08:22.685Z,9.50
2019-04-29T05:10:50.792Z,9.45
2019-04-29T05:13:27.769Z,8.70
2019-04-29T05:15:47.237Z,8.40
2019-04-29T05:18:14.978Z,7.95
2019-04-29T05:20:43.043Z,7.62
2019-04-29T05:23:11.192Z,8.98
2019-04-29T05:25:39.325Z,8.60
2019-04-29T05:28:07.477Z,9.82
2019-04-29T05:30:35.601Z,8.85
2019-04-29T05:33:03.960Z,10.30
2019-04-29T05:36:01.920Z,11.45
2019-04-29T05:38:29.353Z,13.02
2019-04-29T05:40:57.441Z,12.30
2019-04-29T05:43:33.458Z,10.70
2019-04-29T05:46:10.033Z,10.07
2019-04-29T05:48:38.431Z,9.70
2019-04-29T05:51:27.390Z,9.75
2019-04-29T05:53:55.168Z,8.98
2019-04-29T05:56:22.627Z,8.77
2019-04-29T05:58:50.453Z,8.57
2019-04-29T06:01:20.287Z,8.93
2019-04-29T06:03:48.164Z,8.57
2019-04-29T06:06:16.438Z,9.52
2019-04-29T06:08:44.615Z,9.02
2019-04-29T06:11:12.662Z,9.38
2019-04-29T06:13:40.745Z,9.32
2019-04-29T06:16:09.011Z,8.70
2019-04-29T06:18:36.458Z,10.65
2019-04-29T06:21:09.323Z,9.32
2019-04-29T06:23:32.620Z,9.02
2019-04-29T06:26:00.758Z,9.95
2019-04-29T06:28:28.784Z,10.75
2019-04-29T06:30:56.939Z,9.82
2019-04-29T06:33:29.294Z,10.57
2019-04-29T06:35:53.182Z,10.75
2019-04-29T06:38:22.267Z,11.18
2019-04-29T06:40:50.338Z,11.48
2019-04-29T06:43:18.529Z,10.75
2019-04-29T06:45:46.587Z,11.50
2019-04-29T06:48:14.685Z,11.77
2019-04-29T06:50:42.855Z,12.05
2019-04-29T06:53:11.203Z,13.68
2019-04-29T06:55:38.988Z,13.50
2019-04-29T06:58:06.838Z,13.65
2019-04-29T07:00:34.970Z,13.82
2019-04-29T07:03:03.071Z,15.38
2019-04-29T07:05:31.255Z,14.75
2019-04-29T07:07:59.357Z,16.02
2019-04-29T07:10:27.517Z,15.35
2019-04-29T07:12:56.069Z,13.98
2019-04-29T07:15:24.180Z,15.40
2019-04-29T07:17:52.272Z,15.77
2019-04-29T07:20:20.496Z,14.40
2019-04-29T07:22:48.921Z,16.30
2019-04-29T07:25:16.666Z,18.05
2019-04-29T07:27:45.249Z,19.15
2019-04-29T07:30:13.358Z,19.45
2019-04-29T07:32:46.708Z,17.85
2019-04-29T07:35:11.478Z,17.42
2019-04-29T07:37:38.047Z,18.45
2019-04-29T07:40:08.000Z,19.37
2019-04-29T07:42:34.919Z,21.65
2019-04-29T07:45:16.385Z,20.42
2019-04-29T07:47:55.909Z,20.98
2019-04-29T07:50:12.785Z,20.52
2019-04-29T07:52:41.335Z,20.83
2019-04-29T07:55:09.542Z,20.33
2019-04-29T07:57:37.469Z,19.85
2019-04-29T08:00:08.557Z,19.33
2019-04-29T08:02:34.000Z,18.87
2019-04-29T08:05:02.123Z,18.20
2019-04-29T08:07:30.472Z,18.92
2019-04-29T08:09:58.532Z,17.50
2019-04-29T08:12:26.584Z,18.45
2019-04-29T08:14:58.535Z,17.70
2019-04-29T08:17:24.493Z,17.92
2019-04-29T08:19:52.564Z,17.12
2019-04-29T08:22:22.872Z,17.33
2019-04-29T08:24:50.409Z,16.67
2019-04-29T08:27:17.297Z,16.92
2019-04-29T08:29:45.883Z,17.40
2019-04-29T08:32:13.602Z,17.90
2019-04-29T08:34:42.403Z,17.05
2019-04-29T08:37:11.008Z,18.20
2019-04-29T08:39:38.771Z,17.67
2019-04-29T08:42:10.106Z,15.73
2019-04-29T08:45:01.772Z,15.20
2019-04-29T08:47:32.162Z,15.80
2019-04-29T08:50:00.026Z,15.45
2019-04-29T08:52:28.212Z,17.00
2019-04-29T08:54:57.357Z,16.40
2019-04-29T08:57:25.513Z,16.92
2019-04-29T08:59:53.952Z,14.87
2019-04-29T09:02:33.419Z,16.80
2019-04-29T09:04:53.770Z,14.32
2019-04-29T09:07:22.132Z,14.07
2019-04-29T09:09:48.445Z,15.00
2019-04-29T09:12:14.716Z,12.73
2019-04-29T09:14:43.211Z,13.90
2019-04-29T09:17:20.179Z,14.82
2019-04-29T09:19:39.801Z,13.65
2019-04-29T09:22:08.024Z,13.43
2019-04-29T09:24:36.284Z,13.02
2019-04-29T09:27:10.036Z,13.70
2019-04-29T09:29:38.886Z,12.90
2019-04-29T09:32:07.063Z,13.18
2019-04-29T09:34:35.171Z,12.02
2019-04-29T09:37:03.945Z,12.65
2019-04-29T09:39:42.339Z,12.30
2019-04-29T09:42:08.107Z,11.93
2019-04-29T09:44:57.941Z,11.95
2019-04-29T09:47:26.037Z,11.05
2019-04-29T09:49:53.946Z,11.25
2019-04-29T09:52:22.076Z,10.70
2019-04-29T09:54:50.338Z,11.23
2019-04-29T09:57:18.408Z,11.18
2019-04-29T09:59:50.153Z,10.93
2019-04-29T10:02:37.293Z,10.82
2019-04-29T10:05:30.742Z,11.75
2019-04-29T10:07:58.520Z,12.15
2019-04-29T10:10:26.591Z,10.98
2019-04-29T10:12:55.155Z,9.95
2019-04-29T10:15:28.776Z,10.40
2019-04-29T10:18:07.915Z,10.82
2019-04-29T10:20:39.880Z,9.85
2019-04-29T10:23:07.967Z,10.05
2019-04-29T10:25:36.218Z,10.23
2019-04-29T10:28:04.290Z,10.55
2019-04-29T10:30:32.860Z,8.93
2019-04-29T10:33:00.945Z,9.13
2019-04-29T10:35:29.466Z,8.45
2019-04-29T10:37:57.274Z,8.50
2019-04-29T10:40:47.564Z,9.05
2019-04-29T10:43:37.678Z,10.25
2019-04-29T10:46:24.375Z,8.90
2019-04-29T10:48:59.187Z,8.88
2019-04-29T10:51:27.363Z,8.35
2019-04-29T10:53:52.775Z,8.15
2019-04-29T10:56:20.747Z,8.45
2019-04-29T10:58:48.794Z,7.97
2019-04-29T11:01:44.230Z,8.10
2019-04-29T11:04:12.281Z,8.68
2019-04-29T11:06:41.453Z,8.43
2019-04-29T11:09:28.130Z,8.05
2019-04-29T11:11:56.177Z,7.97
2019-04-29T11:14:24.865Z,9.82
2019-04-29T11:16:51.826Z,8.23
2019-04-29T11:19:19.614Z,8.52
2019-04-29T11:21:47.778Z,9.02
2019-04-29T11:24:34.347Z,9.20
2019-04-29T11:27:18.009Z,8.98
2019-04-29T11:29:46.295Z,8.60
2019-04-29T11:32:19.945Z,8.30
2019-04-29T11:35:02.523Z,9.00
2019-04-29T11:37:31.283Z,8.27
2019-04-29T11:39:59.364Z,8.23
2019-04-29T11:42:31.964Z,8.95
2019-04-29T11:44:57.214Z,8.40
2019-04-29T11:47:26.359Z,8.13
2019-04-29T11:50:11.851Z,8.07
2019-04-29T11:52:37.944Z,7.45
2019-04-29T11:55:06.616Z,8.18
2019-04-29T11:57:41.270Z,8.00
2019-04-29T12:00:33.259Z,6.90
2019-04-29T12:03:03.942Z,8.35
2019-04-29T12:05:44.926Z,8.70
2019-04-29T12:08:15.929Z,9.23
2019-04-29T12:10:46.674Z,8.93
2019-04-29T12:13:07.418Z,7.90
2019-04-29T12:15:59.904Z,8.48
2019-04-29T12:18:34.151Z,8.38
2019-04-29T12:21:21.236Z,7.75
2019-04-29T12:23:52.078Z,6.95
2019-04-29T12:26:17.589Z,7.85
2019-04-29T12:28:45.922Z,8.20
2019-04-29T12:31:19.669Z,7.37
2019-04-29T12:33:52.497Z,6.47
2019-04-29T12:36:20.526Z,6.47
2019-04-29T12:39:06.203Z,7.50
2019-04-29T12:41:49.043Z,6.40
2019-04-29T12:44:35.074Z,6.07
2019-04-29T12:46:57.842Z,6.12
2019-04-29T12:49:27.461Z,6.32
2019-04-29T12:51:55.546Z,4.75
2019-04-29T12:54:23.603Z,4.15
2019-04-29T12:56:51.642Z,5.15
2019-04-29T12:59:20.154Z,6.75
2019-04-29T13:02:05.732Z,5.37
2019-04-29T13:04:58.985Z,5.78
2019-04-29T13:07:49.651Z,5.30
2019-04-29T13:10:21.982Z,3.95
2019-04-29T13:12:50.074Z,4.40
2019-04-29T13:15:36.154Z,4.55
2019-04-29T13:18:12.996Z,4.25
2019-04-29T13:20:36.286Z,3.95
2019-04-29T13:23:17.469Z,4.97
2019-04-29T13:25:32.736Z,4.82
2019-04-29T13:28:03.847Z,5.22
2019-04-29T13:30:29.181Z,4.00
2019-04-29T13:33:01.264Z,4.65
2019-04-29T13:35:25.017Z,4.30
2019-04-29T13:37:52.473Z,4.95
2019-04-29T13:40:20.271Z,4.57
2019-04-29T13:42:51.000Z,5.15
2019-04-29T13:45:20.019Z,4.55
2019-04-29T13:48:07.067Z,3.95
2019-04-29T13:50:39.988Z,4.97
2019-04-29T13:53:04.343Z,4.60
2019-04-29T13:55:48.047Z,4.70
2019-04-29T13:58:00.542Z,4.68
2019-04-29T14:00:36.725Z,5.07
2019-04-29T14:03:32.169Z,4.32
2019-04-29T14:06:04.167Z,4.30
2019-04-29T14:08:28.757Z,4.78
2019-04-29T14:10:56.600Z,3.72
2019-04-29T14:13:24.334Z,5.18
2019-04-29T14:15:52.899Z,3.58
2019-04-29T14:18:21.042Z,4.10
2019-04-29T14:20:51.867Z,4.12
2019-04-29T14:23:17.849Z,3.90
2019-04-29T14:25:46.620Z,4.10
2019-04-29T14:28:14.827Z,3.05
2019-04-29T14:30:43.782Z,3.60
2019-04-29T14:33:11.894Z,3.67
2019-04-29T14:35:59.466Z,3.12
2019-04-29T14:38:24.529Z,3.20
2019-04-29T14:40:52.302Z,3.28
2019-04-29T14:43:40.408Z,2.80
2019-04-29T14:46:28.886Z,3.87
2019-04-29T14:49:06.327Z,3.12
2019-04-29T14:51:36.888Z,2.37
2019-04-29T14:54:05.582Z,3.15
2019-04-29T14:56:29.873Z,3.05
2019-04-29T14:59:06.672Z,3.00
2019-04-29T15:01:37.955Z,3.00
2019-04-29T15:04:17.897Z,2.70
2019-04-29T15:06:36.399Z,2.45
2019-04-29T15:09:05.758Z,3.22
2019-04-29T15:11:45.290Z,2.80
2019-04-29T15:14:27.254Z,2.62
2019-04-29T15:16:58.658Z,2.53
2019-04-29T15:19:55.803Z,2.92
2019-04-29T15:22:24.553Z,2.70
2019-04-29T15:24:50.648Z,2.60
2019-04-29T15:27:18.724Z,4.10
2019-04-29T15:29:46.874Z,2.37
2019-04-29T15:32:17.890Z,2.20
2019-04-29T15:34:44.023Z,2.15
2019-04-29T15:37:11.093Z,2.22
2019-04-29T15:39:40.891Z,2.60
2019-04-29T15:42:08.874Z,2.30
2019-04-29T15:44:35.016Z,2.12
2019-04-29T15:47:03.102Z,2.17
2019-04-29T15:49:31.141Z,2.65
2019-04-29T15:51:59.226Z,2.97
2019-04-29T15:54:27.675Z,2.20
2019-04-29T15:56:56.245Z,2.25
2019-04-29T15:59:24.105Z,2.67
2019-04-29T16:01:51.969Z,2.83
2019-04-29T16:04:27.859Z,2.45
2019-04-29T16:06:59.121Z,2.97
2019-04-29T16:09:51.715Z,2.35
2019-04-29T16:12:15.723Z,2.22
2019-04-29T16:14:43.290Z,3.10
2019-04-29T16:17:11.158Z,3.33
2019-04-29T16:19:39.265Z,4.37
2019-04-29T16:22:07.322Z,4.87
2019-04-29T16:24:38.425Z,4.07
2019-04-29T16:27:08.798Z,4.47
2019-04-29T16:29:31.918Z,3.85
2019-04-29T16:32:02.513Z,4.60
2019-04-29T16:34:27.955Z,2.92
2019-04-29T16:36:56.037Z,4.32
2019-04-29T16:39:24.126Z,4.85
2019-04-29T16:42:17.757Z,4.32
2019-04-29T16:44:45.640Z,3.97
2019-04-29T16:47:13.723Z,3.87
2019-04-29T16:49:41.180Z,4.87
2019-04-29T16:52:09.272Z,3.92
2019-04-29T16:54:37.317Z,3.03
2019-04-29T16:57:06.955Z,4.50
2019-04-29T16:59:35.019Z,4.30
2019-04-29T17:02:02.759Z,5.03
2019-04-29T17:04:30.234Z,4.62
2019-04-29T17:07:12.192Z,4.70
2019-04-29T17:09:45.330Z,4.28
2019-04-29T17:12:13.929Z,4.05
2019-04-29T17:15:02.426Z,3.67
2019-04-29T17:17:13.067Z,4.32
2019-04-29T17:19:41.208Z,4.32
2019-04-29T17:22:24.870Z,5.05
2019-04-29T17:24:37.337Z,4.60
2019-04-29T17:27:27.418Z,5.85
2019-04-29T17:30:17.411Z,4.97
2019-04-29T17:33:00.362Z,5.32
2019-04-29T17:35:29.292Z,5.50
2019-04-29T17:37:56.770Z,5.75
2019-04-29T17:40:24.864Z,5.22
2019-04-29T17:43:00.794Z,6.85
2019-04-29T17:45:33.291Z,6.62
2019-04-29T17:48:18.384Z,6.55
2019-04-29T17:50:54.761Z,7.37
2019-04-29T17:53:31.671Z,5.75
2019-04-29T17:56:24.762Z,5.72
2019-04-29T17:58:58.260Z,5.53
2019-04-29T18:01:43.347Z,7.25
2019-04-29T18:04:28.294Z,7.93
2019-04-29T18:07:35.130Z,7.07
2019-04-29T18:10:17.572Z,8.95
2019-04-29T18:12:45.395Z,7.55
2019-04-29T18:15:17.723Z,7.07
2019-04-29T18:17:39.006Z,7.53
2019-04-29T18:20:32.844Z,8.68
2019-04-29T18:23:29.650Z,8.07
2019-04-29T18:26:15.618Z,9.40
2019-04-29T18:28:43.721Z,7.50
2019-04-29T18:31:11.539Z,7.53
2019-04-29T18:33:39.446Z,8.20
2019-04-29T18:36:10.576Z,6.37
2019-04-29T18:38:35.378Z,8.77
2019-04-29T18:41:03.785Z,8.02
2019-04-29T18:43:31.916Z,9.07
2019-04-29T18:46:00.020Z,8.00
2019-04-29T18:48:28.074Z,9.52
2019-04-29T18:50:57.144Z,8.10
2019-04-29T18:53:25.497Z,7.22
2019-04-29T18:55:51.989Z,8.57
2019-04-29T18:58:20.047Z,8.55
2019-04-29T19:00:52.389Z,9.77
2019-04-29T19:03:17.886Z,7.60
2019-04-29T19:05:48.763Z,7.57
2019-04-29T19:08:22.763Z,8.25
2019-04-29T19:10:49.921Z,7.78
2019-04-29T19:13:14.878Z,7.62
2019-04-29T19:15:45.047Z,7.95
2019-04-29T19:18:12.375Z,7.68
2019-04-29T19:20:36.952Z,7.60
2019-04-29T19:23:09.729Z,7.50
2019-04-29T19:25:35.304Z,8.55
2019-04-29T19:28:11.802Z,8.23
2019-04-29T19:30:29.757Z,7.72
2019-04-29T19:33:00.287Z,4.95
2019-04-29T19:35:29.482Z,7.70
2019-04-29T19:37:53.811Z,7.12
2019-04-29T19:40:21.903Z,7.62
2019-04-29T19:42:50.099Z,7.32
2019-04-29T19:45:18.228Z,7.97
2019-04-29T19:47:52.080Z,7.25
2019-04-29T19:50:16.599Z,7.82
2019-04-29T19:52:42.260Z,6.85
2019-04-29T19:55:10.411Z,7.50
2019-04-29T19:57:46.888Z,7.60
2019-04-29T20:00:07.583Z,8.23
2019-04-29T20:02:35.905Z,7.85
2019-04-29T20:05:12.911Z,7.80
2019-04-29T20:07:43.525Z,7.55
2019-04-29T20:10:10.425Z,6.93
2019-04-29T20:12:37.436Z,8.15
2019-04-29T20:15:08.102Z,8.65
2019-04-29T20:18:07.976Z,8.43
2019-04-29T20:20:47.893Z,8.90
2019-04-29T20:23:24.822Z,8.68
2019-04-29T20:25:48.040Z,8.45
2019-04-29T20:28:17.253Z,8.35
2019-04-29T20:30:40.612Z,9.02
2019-04-29T20:33:12.645Z,9.93
2019-04-29T20:35:40.460Z,8.13
2019-04-29T20:38:05.647Z,8.32
2019-04-29T20:40:37.890Z,8.15
2019-04-29T20:43:01.587Z,9.05
2019-04-29T20:45:29.719Z,8.27
2019-04-29T20:47:57.790Z,7.43
2019-04-29T20:50:27.301Z,8.13
2019-04-29T20:53:26.049Z,6.80
2019-04-29T20:55:55.235Z,7.25
2019-04-29T20:58:23.668Z,7.80
2019-04-29T21:00:50.186Z,6.40
2019-04-29T21:03:27.677Z,6.45
2019-04-29T21:05:50.063Z,7.72
2019-04-29T21:08:18.905Z,7.43
2019-04-29T21:10:46.367Z,5.45
2019-04-29T21:13:20.346Z,3.83
2019-04-29T21:16:12.813Z,6.47
2019-04-29T21:18:47.431Z,6.70
2019-04-29T21:21:10.272Z,6.85
2019-04-29T21:23:38.629Z,5.75
2019-04-29T21:26:08.676Z,6.35
2019-04-29T21:28:38.180Z,7.68
2019-04-29T21:31:02.804Z,6.47
2019-04-29T21:33:31.253Z,7.00
2019-04-29T21:36:06.592Z,6.55
2019-04-29T21:39:01.931Z,6.12
2019-04-29T21:41:32.492Z,5.93
2019-04-29T21:44:00.964Z,6.15
2019-04-29T21:46:29.707Z,6.22
2019-04-29T21:48:58.293Z,6.85
2019-04-29T21:51:27.543Z,6.75
2019-04-29T21:53:56.014Z,6.53
2019-04-29T21:56:23.403Z,7.62
2019-04-29T21:58:51.476Z,7.43
2019-04-29T22:01:19.539Z,7.18
2019-04-29T22:03:47.732Z,6.00
2019-04-29T22:06:16.289Z,6.62
2019-04-29T22:08:45.240Z,5.78
2019-04-29T22:11:13.451Z,5.62
2019-04-29T22:13:41.589Z,4.80
2019-04-29T22:16:11.559Z,4.32
2019-04-29T22:18:37.860Z,5.03
2019-04-29T22:21:08.553Z,4.93
2019-04-29T22:23:35.276Z,5.00
2019-04-29T22:26:02.069Z,5.07
2019-04-29T22:28:29.992Z,5.47
2019-04-29T22:30:58.151Z,5.60
2019-04-29T22:33:29.787Z,5.45
2019-04-29T22:35:55.452Z,5.68
2019-04-29T22:38:22.082Z,5.82
2019-04-29T22:40:50.346Z,6.22
2019-04-29T22:43:22.772Z,6.55
2019-04-29T22:45:51.398Z,5.45
2019-04-29T22:48:19.926Z,5.97
2019-04-29T22:50:47.636Z,5.12
2019-04-29T22:53:15.749Z,5.68
2019-04-29T22:55:45.240Z,6.72
2019-04-29T22:58:11.974Z,6.05
2019-04-29T23:00:39.756Z,5.93
2019-04-29T23:03:08.669Z,5.95
2019-04-29T23:05:37.859Z,6.53
2019-04-29T23:08:05.113Z,5.45
2019-04-29T23:10:35.517Z,5.97
2019-04-29T23:13:01.691Z,5.03
2019-04-29T23:15:29.467Z,5.97
2019-04-29T23:17:57.980Z,5.90
2019-04-29T23:20:45.537Z,5.90
2019-04-29T23:23:15.734Z,6.10
2019-04-29T23:25:51.776Z,5.75
2019-04-29T23:28:22.414Z,5.85
2019-04-29T23:30:52.087Z,6.12
2019-04-29T23:33:22.694Z,6.75
2019-04-29T23:35:44.744Z,6.53
2019-04-29T23:38:12.011Z,6.32
2019-04-29T23:40:40.197Z,5.40
2019-04-29T23:43:08.384Z,5.95
2019-04-29T23:45:36.251Z,5.50
2019-04-29T23:48:05.676Z,6.12
2019-04-29T23:50:33.122Z,7.10
2019-04-29T23:53:01.350Z,6.03
2019-04-29T23:55:29.585Z,6.10
2019-04-29T23:58:25.994Z,6.25
